This is the latest recevied weather packets stored in our database for station/object LRIA. If no packets are shown the sender has not sent any weather packets the latest 10 day(s).
| Time | Temp. | Humidity | Pressure | Rain* | Wind** | Luminosity | Snow |
|---|---|---|---|---|---|---|---|
| 1777329204 | 7.22° C | 39% | 1019 hPa | - | - | - | - |
| 1777328304 | 7.22° C | 37% | 1019 hPa | - | - | - | - |
| 1777327404 | 7.22° C | 37% | 1019 hPa | - | - | - | - |
| 1777326503 | 7.78° C | 34% | 1020 hPa | - | - | - | - |
| 1777325604 | 7.78° C | 34% | 1020 hPa | - | - | - | - |
| 1777324703 | 8.89° C | 32% | 1020 hPa | - | - | - | - |
| 1777323804 | 8.89° C | 32% | 1020 hPa | - | - | - | - |
| 1777322904 | 7.78° C | 37% | 1020 hPa | - | - | - | - |
| 1777322003 | 7.78° C | 37% | 1020 hPa | - | - | - | - |
| 1777321101 | 8.89° C | 32% | 1020 hPa | - | - | - | - |
| 1777320203 | 8.89° C | 32% | 1020 hPa | - | - | - | - |
| 1777319304 | 10° C | 30% | 1020 hPa | - | - | - | - |
| 1777318438 | 10° C | 30% | 1020 hPa | - | - | - | - |
| 1777317504 | 10° C | 30% | 1020 hPa | - | - | - | - |
| 1777316603 | 10° C | 30% | 1020 hPa | - | - | - | - |
| 1777315703 | 10° C | 30% | 1020 hPa | - | - | - | - |
| 1777314804 | 10° C | 30% | 1020 hPa | - | - | - | - |
| 1777313903 | 11.11° C | 26% | 1020 hPa | - | - | - | - |
| 1777313003 | 11.11° C | 26% | 1020 hPa | - | - | - | - |
| 1777312103 | 11.11° C | 28% | 1019 hPa | - | - | - | - |
| 1777311203 | 11.11° C | 28% | 1019 hPa | - | - | - | - |
| 1777310304 | 12.78° C | 24% | 1019 hPa | - | - | - | - |
| 1777309404 | 12.78° C | 24% | 1019 hPa | - | - | - | - |
| 1777308504 | 12.78° C | 23% | 1019 hPa | - | - | - | - |
| 1777307603 | 12.78° C | 23% | 1019 hPa | - | - | - | - |
* Rain since midnight (hover to see other rain measurements)
** Current wind speed in m/s (hover to see current wind gust speed)